Time;durP1;ratioP1;P1;durP2;ratioP2;P2;SDS_P1;SDS_P2;PMS_P1;PMS_P2;Temp;Humidity;BMP_temperature;BMP_pressure;BME280_temperature;BME280_humidity;BME280_pressure;Samples;Min_cycle;Max_cycle;Signal;HPM_P1;HPM_P2
2021/10/15 00:01:39;;;;;;;24.02;13.95;;;;;;;8.21;86.28;100341.94;1783177;80;25442;-65
2021/10/15 00:04:05;;;;;;;21.95;13.53;;;;;;;8.21;86.23;100338.70;1783153;80;27329;-64
2021/10/15 00:06:32;;;;;;;21.55;13.30;;;;;;;8.22;86.88;100341.66;1783032;80;25714;-65
2021/10/15 00:08:58;;;;;;;21.80;13.05;;;;;;;8.22;86.94;100333.57;1783090;80;25562;-64
2021/10/15 00:11:25;;;;;;;22.27;13.43;;;;;;;8.23;86.71;100343.80;1782983;80;27421;-65
2021/10/15 00:13:52;;;;;;;19.70;13.05;;;;;;;8.23;86.58;100337.84;1783182;80;25474;-64
2021/10/15 00:16:18;;;;;;;19.73;13.40;;;;;;;8.25;87.06;100334.08;1783142;80;27329;-64
2021/10/15 00:18:45;;;;;;;25.43;14.15;;;;;;;8.26;87.02;100331.09;1783070;80;25700;-64
2021/10/15 00:21:11;;;;;;;22.50;14.10;;;;;;;8.27;87.14;100331.87;1783148;80;25450;-64
2021/10/15 00:23:38;;;;;;;22.37;12.80;;;;;;;8.29;87.97;100340.47;1783122;80;25708;-65
2021/10/15 00:26:05;;;;;;;23.70;14.00;;;;;;;8.30;87.46;100328.05;1783178;80;25530;-64
2021/10/15 00:28:32;;;;;;;18.55;13.22;;;;;;;8.32;87.37;100332.59;1783104;80;27336;-64
2021/10/15 00:30:58;;;;;;;21.87;13.28;;;;;;;8.33;87.19;100320.73;1783045;80;25705;-65
2021/10/15 00:33:25;;;;;;;22.07;12.80;;;;;;;8.35;87.53;100323.14;1783133;80;25718;-65
2021/10/15 00:35:52;;;;;;;23.62;13.40;;;;;;;8.36;87.35;100320.16;1783054;80;25477;-64
2021/10/15 00:38:18;;;;;;;22.13;13.62;;;;;;;8.37;87.37;100319.05;1783129;80;25566;-65
2021/10/15 00:40:46;;;;;;;19.00;13.40;;;;;;;8.39;87.51;100320.92;1783073;80;28386;-64
2021/10/15 00:43:12;;;;;;;22.48;13.55;;;;;;;8.40;87.32;100315.77;1783044;80;25756;-63
2021/10/15 00:45:39;;;;;;;22.90;12.82;;;;;;;8.42;87.48;100307.39;1783079;80;25437;-64
2021/10/15 00:48:06;;;;;;;21.23;14.00;;;;;;;8.41;87.42;100309.30;1783060;80;25913;-64
2021/10/15 00:50:33;;;;;;;23.07;13.45;;;;;;;8.43;87.71;100305.52;1783112;80;25715;-64
2021/10/15 00:53:00;;;;;;;22.93;14.45;;;;;;;8.42;87.53;100308.73;1783125;80;27310;-64
2021/10/15 00:55:27;;;;;;;22.15;13.00;;;;;;;8.43;87.57;100302.82;1783115;80;25477;-64
2021/10/15 00:57:53;;;;;;;23.60;14.55;;;;;;;8.43;87.61;100300.12;1783197;80;25619;-63
2021/10/15 01:00:20;;;;;;;18.23;13.03;;;;;;;8.45;88.65;100302.80;1783017;80;25671;-62
2021/10/15 01:02:47;;;;;;;19.57;12.93;;;;;;;8.45;87.83;100296.61;1783082;80;25510;-62
2021/10/15 01:05:14;;;;;;;23.00;13.55;;;;;;;8.45;87.93;100293.91;1783086;80;27325;-63
2021/10/15 01:07:41;;;;;;;18.95;13.13;;;;;;;8.46;88.22;100298.98;1783054;80;25664;-63
2021/10/15 01:10:09;;;;;;;19.52;12.53;;;;;;;8.46;88.55;100300.89;1783069;80;25622;-65
2021/10/15 01:12:36;;;;;;;23.07;12.93;;;;;;;8.45;88.51;100293.91;1785488;80;25690;-63
2021/10/15 01:15:03;;;;;;;20.30;11.80;;;;;;;8.45;88.12;100289.88;1785906;80;25663;-64
2021/10/15 01:17:30;;;;;;;20.80;12.28;;;;;;;8.46;88.76;100288.76;1785847;80;28030;-63
2021/10/15 01:19:56;;;;;;;20.05;12.50;;;;;;;8.45;88.30;100285.83;1785769;80;25648;-63
2021/10/15 01:22:28;;;;;;;19.42;12.35;;;;;;;8.45;88.59;100285.27;1785845;80;25622;-63
2021/10/15 01:24:57;;;;;;;17.12;11.75;;;;;;;8.44;88.64;100280.97;1785814;80;25686;-65
2021/10/15 01:27:25;;;;;;;16.23;11.97;;;;;;;8.45;88.84;100279.09;1785971;80;25521;-64
2021/10/15 01:29:52;;;;;;;20.00;11.90;;;;;;;8.45;88.68;100280.44;1785842;80;27258;-63
2021/10/15 01:32:20;;;;;;;20.02;11.88;;;;;;;8.46;88.84;100275.28;1785761;80;25466;-63
2021/10/15 01:34:47;;;;;;;15.32;10.38;;;;;;;8.47;88.91;100272.85;1785843;80;25481;-64
2021/10/15 01:37:15;;;;;;;16.85;12.00;;;;;;;8.47;89.09;100272.85;1785799;80;25470;-64
2021/10/15 01:39:42;;;;;;;21.12;12.20;;;;;;;8.47;89.35;100272.85;1785845;80;25434;-63
2021/10/15 01:42:53;;;;;;;15.35;10.90;;;;;;;8.47;89.06;100273.64;1785805;80;27287;-64
2021/10/15 01:44:37;;;;;;;18.48;11.97;;;;;;;8.48;89.69;100272.56;1781765;80;25615;-63
2021/10/15 01:47:04;;;;;;;16.27;11.53;;;;;;;8.49;89.75;100265.27;1785807;80;25506;-63
2021/10/15 01:49:31;;;;;;;17.35;12.00;;;;;;;8.49;90.03;100270.66;1785794;80;25555;-63
2021/10/15 01:51:58;;;;;;;20.08;13.13;;;;;;;8.49;89.99;100279.53;1785853;80;25683;-63
2021/10/15 01:54:24;;;;;;;17.00;11.70;;;;;;;8.50;90.04;100275.75;1785898;80;27320;-63
2021/10/15 01:56:51;;;;;;;21.77;13.48;;;;;;;8.51;89.91;100271.16;1785822;80;25439;-63
2021/10/15 01:59:17;;;;;;;19.20;12.82;;;;;;;8.51;90.27;100273.32;1785905;80;25740;-63
2021/10/15 02:01:45;;;;;;;17.35;12.53;;;;;;;8.50;90.02;100267.66;1785747;80;25488;-63
2021/10/15 02:04:11;;;;;;;17.73;12.28;;;;;;;8.53;90.10;100275.70;1785800;80;25421;-63
2021/10/15 02:06:38;;;;;;;16.32;12.18;;;;;;;8.53;90.15;100267.08;1785795;80;27316;-63
2021/10/15 02:09:05;;;;;;;19.70;13.50;;;;;;;8.54;90.09;100263.27;1785680;80;25643;-63
2021/10/15 02:11:32;;;;;;;21.37;13.80;;;;;;;8.56;90.58;100262.45;1770219;80;25470;-63
2021/10/15 02:13:59;;;;;;;20.43;13.72;;;;;;;8.57;90.28;100265.94;1736423;82;25463;-63
2021/10/15 02:16:26;;;;;;;22.35;14.23;;;;;;;8.59;90.43;100259.70;1736382;82;25661;-63
2021/10/15 02:18:54;;;;;;;22.13;14.05;;;;;;;8.61;90.66;100265.59;1736387;82;27393;-63
2021/10/15 02:21:21;;;;;;;20.80;14.60;;;;;;;8.60;90.92;100252.66;1726391;83;25704;-63
2021/10/15 02:23:47;;;;;;;19.77;13.90;;;;;;;8.63;90.82;100253.16;1726217;83;25685;-63
2021/10/15 02:26:20;;;;;;;21.80;14.35;;;;;;;8.62;90.53;100246.98;1726271;83;25638;-63
2021/10/15 02:28:42;;;;;;;21.12;14.03;;;;;;;8.64;90.92;100249.38;1726232;83;25458;-63
2021/10/15 02:31:09;;;;;;;23.02;14.80;;;;;;;8.64;90.52;100250.73;1726177;83;27311;-63
2021/10/15 02:33:36;;;;;;;21.62;14.65;;;;;;;8.67;91.06;100256.88;1726123;83;25471;-63
2021/10/15 02:36:03;;;;;;;26.62;15.72;;;;;;;8.67;90.80;100250.14;1726183;83;25640;-63
2021/10/15 02:38:30;;;;;;;22.20;15.53;;;;;;;8.67;90.98;100250.93;1726241;83;25892;-65
2021/10/15 02:40:56;;;;;;;23.92;15.45;;;;;;;8.68;90.77;100253.86;1726217;83;25503;-63
2021/10/15 02:43:23;;;;;;;26.77;16.05;;;;;;;8.68;91.46;100248.47;1726180;83;27295;-63
2021/10/15 02:45:50;;;;;;;25.70;15.98;;;;;;;8.70;90.83;100251.69;1726109;83;25452;-63
2021/10/15 02:48:16;;;;;;;27.13;16.73;;;;;;;8.71;90.96;100244.39;1726121;83;25586;-63
2021/10/15 02:50:43;;;;;;;27.35;16.73;;;;;;;8.71;90.94;100247.09;1726259;83;25649;-63
2021/10/15 02:53:10;;;;;;;27.50;16.87;;;;;;;8.73;91.08;100251.63;1726307;83;25679;-63
2021/10/15 02:55:36;;;;;;;26.60;17.07;;;;;;;8.73;91.07;100246.23;1726195;83;27330;-63
2021/10/15 02:58:23;;;;;;;28.40;16.02;;;;;;;8.75;90.99;100248.08;1781607;80;25526;-63
2021/10/15 03:00:52;;;;;;;27.98;16.77;;;;;;;8.76;90.94;100240.25;1778064;80;25477;-63
2021/10/15 03:03:19;;;;;;;27.25;17.02;;;;;;;8.77;91.43;100245.35;1782230;80;25603;-63
2021/10/15 03:05:45;;;;;;;29.55;17.45;;;;;;;8.77;91.43;100238.61;1782206;80;25628;-63
2021/10/15 03:08:13;;;;;;;31.10;18.07;;;;;;;8.79;91.12;100237.76;1782180;80;27977;-64
2021/10/15 03:10:39;;;;;;;30.92;17.98;;;;;;;8.82;91.25;100247.70;1750158;80;25685;-64
2021/10/15 03:13:07;;;;;;;31.60;17.98;;;;;;;8.82;91.05;100247.70;1745339;82;25692;-64
2021/10/15 03:15:33;;;;;;;27.20;16.87;;;;;;;8.83;91.21;100242.00;1745310;82;25712;-64
2021/10/15 03:18:00;;;;;;;33.85;19.40;;;;;;;8.83;91.56;100243.35;1745371;82;25462;-64
2021/10/15 03:20:27;;;;;;;34.13;18.73;;;;;;;8.84;91.17;100246.31;1745332;82;27335;-63
2021/10/15 03:22:53;;;;;;;33.10;19.05;;;;;;;8.85;91.41;100238.45;1745236;82;25711;-63
2021/10/15 03:25:20;;;;;;;34.60;19.55;;;;;;;8.85;91.14;100233.62;1745333;82;25612;-64
2021/10/15 03:27:48;;;;;;;34.08;19.40;;;;;;;8.86;91.20;100235.23;1745308;82;25617;-63
2021/10/15 03:30:14;;;;;;;34.05;19.65;;;;;;;8.88;91.37;100242.47;1745357;82;25688;-63
2021/10/15 03:32:41;;;;;;;40.78;20.43;;;;;;;8.88;91.18;100239.21;1745332;82;27356;-64
2021/10/15 03:35:09;;;;;;;34.85;20.52;;;;;;;8.89;91.48;100240.83;1745251;82;25684;-64
2021/10/15 03:37:36;;;;;;;39.95;21.15;;;;;;;8.90;91.42;100241.61;1745324;82;25467;-63
2021/10/15 03:40:24;;;;;;;39.98;21.60;;;;;;;8.91;92.14;100238.62;1745261;82;25536;-63
2021/10/15 03:42:50;;;;;;;39.88;21.50;;;;;;;8.91;91.75;100232.44;1651013;86;25593;-63
2021/10/15 03:45:17;;;;;;;40.52;21.70;;;;;;;8.92;91.71;100229.97;1651088;86;27344;-64
2021/10/15 03:47:45;;;;;;;42.35;22.25;;;;;;;8.92;92.15;100218.65;1650883;86;25560;-63
2021/10/15 03:50:13;;;;;;;44.77;23.80;;;;;;;8.93;91.82;100226.98;1630651;88;25710;-63
2021/10/15 03:52:40;;;;;;;40.33;22.30;;;;;;;8.94;92.06;100213.75;1662941;86;25874;-63
2021/10/15 03:55:10;;;;;;;43.92;22.82;;;;;;;8.96;92.18;100215.59;1662971;86;25612;-63
2021/10/15 03:57:37;;;;;;;45.43;24.80;;;;;;;8.97;92.04;100211.81;1663055;86;28063;-64
2021/10/15 04:00:08;;;;;;;42.23;23.42;;;;;;;8.99;92.67;100211.52;1662855;86;25609;-64
2021/10/15 04:02:39;;;;;;;43.70;23.45;;;;;;;9.01;92.09;100212.53;1662982;86;25532;-64
2021/10/15 04:05:09;;;;;;;46.55;22.98;;;;;;;9.02;92.12;100217.63;1662907;86;25719;-64
2021/10/15 04:07:36;;;;;;;41.35;22.87;;;;;;;9.05;92.24;100217.04;1663057;86;25678;-64
2021/10/15 04:10:22;;;;;;;44.13;23.25;;;;;;;9.05;92.26;100219.73;1611297;88;25761;-64
2021/10/15 04:12:48;;;;;;;44.75;24.40;;;;;;;9.07;92.29;100214.83;1610808;88;25704;-64
2021/10/15 04:15:15;;;;;;;44.15;24.05;;;;;;;9.10;92.15;100225.59;1610854;89;25638;-65
2021/10/15 04:17:42;;;;;;;55.12;24.70;;;;;;;9.10;92.24;100219.63;1610867;89;25576;-64
2021/10/15 04:20:10;;;;;;;45.67;23.83;;;;;;;9.12;92.04;100216.08;1612654;88;25523;-64
2021/10/15 04:22:37;;;;;;;44.20;25.10;;;;;;;9.13;92.00;100221.73;1613809;88;27342;-65
2021/10/15 04:25:06;;;;;;;41.83;24.15;;;;;;;9.14;92.21;100214.43;1613806;88;25753;-65
2021/10/15 04:27:35;;;;;;;43.87;23.57;;;;;;;9.15;92.38;100211.99;1614131;88;25559;-65
2021/10/15 04:30:04;;;;;;;42.98;22.90;;;;;;;9.16;92.53;100221.14;1613963;88;25669;-65
2021/10/15 04:32:31;;;;;;;48.58;25.62;;;;;;;9.16;92.37;100214.95;1613938;88;25740;-65
2021/10/15 04:34:58;;;;;;;40.33;23.73;;;;;;;9.18;92.65;100220.84;1613904;88;27345;-65
2021/10/15 04:37:25;;;;;;;42.60;23.45;;;;;;;9.19;92.95;100217.58;1613832;88;25784;-64
2021/10/15 04:39:52;;;;;;;41.90;24.32;;;;;;;9.20;92.68;100214.59;1613876;88;25733;-63
2021/10/15 04:42:19;;;;;;;41.73;23.95;;;;;;;9.20;92.40;100215.94;1613883;88;25544;-64
2021/10/15 04:44:47;;;;;;;41.00;23.40;;;;;;;9.22;92.60;100210.24;1613940;88;25701;-63
2021/10/15 04:47:13;;;;;;;42.75;22.32;;;;;;;9.23;92.42;100209.13;1613905;88;27344;-63
2021/10/15 04:49:40;;;;;;;44.30;24.63;;;;;;;9.24;92.49;100203.98;1613807;88;25595;-63
2021/10/15 04:52:07;;;;;;;42.35;23.27;;;;;;;9.25;92.45;100208.30;1613911;88;25478;-64
2021/10/15 04:54:33;;;;;;;39.95;22.75;;;;;;;9.25;92.71;100203.69;1613954;88;25520;-64
2021/10/15 04:57:00;;;;;;;38.80;22.42;;;;;;;9.26;92.62;100201.78;1613940;88;25550;-63
2021/10/15 04:59:29;;;;;;;36.55;22.67;;;;;;;9.26;92.39;100198.55;1613900;88;27336;-63
2021/10/15 05:01:55;;;;;;;43.45;22.58;;;;;;;9.27;92.33;100196.08;1613811;88;25718;-63
2021/10/15 05:04:22;;;;;;;41.65;23.15;;;;;;;9.28;92.43;100197.69;1613889;88;25665;-63
2021/10/15 05:06:49;;;;;;;43.58;23.38;;;;;;;9.28;92.31;100194.98;1613867;88;25934;-64
2021/10/15 05:09:32;;;;;;;38.42;23.70;;;;;;;9.30;92.18;100204.92;1627849;86;25704;-62
2021/10/15 05:11:46;;;;;;;37.85;21.95;;;;;;;9.32;92.25;100201.38;1640613;87;27564;-63
2021/10/15 05:14:13;;;;;;;41.87;22.80;;;;;;;9.32;92.29;100201.38;1644596;87;25487;-63
2021/10/15 05:16:40;;;;;;;36.85;21.77;;;;;;;9.33;92.41;100203.51;1644401;87;25661;-63
2021/10/15 05:19:07;;;;;;;41.05;21.85;;;;;;;9.31;92.62;100206.54;1644393;87;25931;-63
2021/10/15 05:21:34;;;;;;;34.65;21.12;;;;;;;9.32;92.43;100197.32;1644429;87;25574;-64
2021/10/15 05:24:01;;;;;;;33.25;20.88;;;;;;;9.32;92.96;100196.53;1644411;87;27997;-64
2021/10/15 05:26:28;;;;;;;34.33;21.50;;;;;;;9.32;92.35;100190.57;1644337;87;25503;-63
2021/10/15 05:28:54;;;;;;;35.20;20.45;;;;;;;9.35;92.43;100197.28;1644376;87;25729;-63
2021/10/15 05:31:21;;;;;;;34.95;20.08;;;;;;;9.35;92.59;100193.23;1644377;87;25496;-63
2021/10/15 05:33:48;;;;;;;31.75;19.90;;;;;;;9.35;92.40;100196.72;1644417;87;25543;-63
2021/10/15 05:36:15;;;;;;;36.38;20.88;;;;;;;9.37;92.53;100194.28;1644361;87;27357;-63
2021/10/15 05:38:42;;;;;;;34.92;21.23;;;;;;;9.38;92.48;100196.69;1644313;87;25520;-64
2021/10/15 05:41:09;;;;;;;33.35;20.72;;;;;;;9.39;92.51;100192.86;1644478;87;25673;-64
2021/10/15 05:43:35;;;;;;;32.95;20.97;;;;;;;9.41;92.54;100196.05;1644355;87;26006;-65
2021/10/15 05:46:02;;;;;;;31.52;19.45;;;;;;;9.43;92.43;100197.10;1644434;87;25515;-65
2021/10/15 05:48:31;;;;;;;32.55;20.17;;;;;;;9.43;92.63;100197.92;1644361;87;27358;-64
2021/10/15 05:50:58;;;;;;;33.38;20.62;;;;;;;9.46;92.83;100192.45;1644451;87;25695;-63
2021/10/15 05:53:26;;;;;;;34.48;21.75;;;;;;;9.46;92.83;100195.15;1644393;87;25598;-65
2021/10/15 05:56:18;;;;;;;34.70;21.45;;;;;;;9.47;92.49;100193.50;1644363;87;25591;-64
2021/10/15 06:01:15;;;;;;;30.92;18.87;;;;;;;9.52;92.54;100191.25;1644406;87;27398;-65
2021/10/15 06:03:45;;;;;;;36.38;21.62;;;;;;;9.53;92.78;100198.23;1644300;86;25825;-64
2021/10/15 06:14:28;;;;;;;34.83;21.73;;;;;;;9.61;92.44;100199.42;1641827;87;27471;-66
2021/10/15 06:16:58;;;;;;;34.40;21.52;;;;;;;9.64;92.39;100200.95;1641685;87;25476;-64
2021/10/15 06:19:26;;;;;;;36.35;21.02;;;;;;;9.65;92.42;100195.81;1641522;87;25654;-65
2021/10/15 06:21:53;;;;;;;37.17;21.45;;;;;;;9.67;92.42;100203.59;1642006;86;25582;-66
2021/10/15 06:24:20;;;;;;;31.52;20.92;;;;;;;9.68;92.27;100197.88;1641804;87;25658;-65
2021/10/15 06:26:47;;;;;;;32.55;19.50;;;;;;;9.71;92.48;100199.98;1641799;87;27353;-60
2021/10/15 06:29:14;;;;;;;34.98;19.77;;;;;;;9.72;92.29;100193.48;1641658;87;25685;-58
2021/10/15 06:31:41;;;;;;;30.75;19.73;;;;;;;9.72;92.22;100191.31;1641784;87;25503;-61
2021/10/15 06:34:09;;;;;;;32.28;19.77;;;;;;;9.76;92.36;100196.94;1641749;86;25484;-61
2021/10/15 06:36:36;;;;;;;35.97;21.00;;;;;;;9.75;92.28;100192.63;1642106;87;25500;-61
2021/10/15 06:39:03;;;;;;;35.35;21.62;;;;;;;9.77;92.14;100195.81;1641754;87;27409;-60
2021/10/15 06:41:30;;;;;;;36.93;20.88;;;;;;;9.80;92.27;100195.20;1641679;87;25548;-60
2021/10/15 06:43:57;;;;;;;33.38;19.23;;;;;;;9.81;92.07;100194.91;1641781;87;25677;-60
2021/10/15 06:46:23;;;;;;;31.40;19.17;;;;;;;9.83;92.05;100195.39;1641739;87;25547;-59
2021/10/15 06:48:50;;;;;;;30.30;18.73;;;;;;;9.84;92.02;100201.58;1641727;87;25713;-59
2021/10/15 06:51:17;;;;;;;31.82;20.35;;;;;;;9.87;92.21;100201.77;1641768;87;27971;-59
2021/10/15 06:53:45;;;;;;;31.60;20.27;;;;;;;9.88;92.06;100202.02;1641689;87;25240;-59
2021/10/15 06:56:12;;;;;;;30.55;19.75;;;;;;;9.89;91.88;100198.23;1641808;86;25515;-59
2021/10/15 06:58:39;;;;;;;33.45;20.35;;;;;;;9.92;91.98;100204.91;1641732;87;25503;-59
2021/10/15 07:01:06;;;;;;;32.30;19.73;;;;;;;9.93;91.71;100197.59;1641816;86;25736;-58
2021/10/15 07:03:33;;;;;;;32.65;19.98;;;;;;;9.95;91.73;100203.51;1641771;86;27348;-57
2021/10/15 07:06:00;;;;;;;32.83;19.07;;;;;;;9.96;91.77;100200.50;1641782;86;25765;-57
2021/10/15 07:08:27;;;;;;;31.73;20.08;;;;;;;9.97;91.82;100204.00;1641822;87;25544;-57
2021/10/15 07:10:53;;;;;;;29.90;20.08;;;;;;;9.98;91.96;100205.05;1641652;86;25788;-57
2021/10/15 07:13:20;;;;;;;33.15;20.27;;;;;;;9.99;91.82;100203.13;1641795;86;25665;-56
2021/10/15 07:15:47;;;;;;;30.48;19.32;;;;;;;10.00;91.63;100200.69;1641778;87;28117;-56
2021/10/15 07:18:15;;;;;;;32.20;20.05;;;;;;;10.01;91.67;100209.02;1641696;86;25726;-57
2021/10/15 07:20:42;;;;;;;31.17;20.62;;;;;;;10.03;91.66;100204.92;1641761;86;25690;-56
2021/10/15 07:23:14;;;;;;;33.08;21.00;;;;;;;10.05;91.72;100212.16;1641723;87;25590;-56
2021/10/15 07:25:42;;;;;;;32.05;20.68;;;;;;;10.09;91.55;100206.94;1641815;87;25677;-56
2021/10/15 07:28:10;;;;;;;30.52;20.92;;;;;;;10.12;91.38;100210.94;1641825;87;27392;-56
2021/10/15 07:30:36;;;;;;;35.20;21.10;;;;;;;10.13;91.31;100211.98;1641653;87;25645;-55
2021/10/15 07:33:03;;;;;;;30.32;19.25;;;;;;;10.16;91.33;100215.41;1641771;87;25627;-56
2021/10/15 07:35:30;;;;;;;31.07;20.37;;;;;;;10.18;91.19;100214.56;1641725;87;25599;-57
2021/10/15 07:37:57;;;;;;;37.33;21.85;;;;;;;10.19;91.18;100222.91;1641749;86;25634;-57
2021/10/15 07:40:24;;;;;;;33.40;20.75;;;;;;;10.21;91.06;100223.95;1641732;87;27768;-56
2021/10/15 07:42:51;;;;;;;33.75;20.30;;;;;;;10.21;90.96;100215.28;1641665;86;25548;-57
2021/10/15 07:45:17;;;;;;;30.82;19.80;;;;;;;10.24;91.05;100215.23;1641713;87;25501;-58
2021/10/15 07:47:44;;;;;;;29.60;20.80;;;;;;;10.27;90.90;100224.88;1641727;87;25701;-57
2021/10/15 07:50:11;;;;;;;29.80;19.45;;;;;;;10.29;90.68;100222.66;1641735;87;25673;-56
2021/10/15 07:52:40;;;;;;;33.70;20.25;;;;;;;10.33;90.69;100226.91;1641791;86;27413;-57
2021/10/15 07:55:09;;;;;;;27.70;18.57;;;;;;;10.35;90.57;100227.97;1641791;86;25485;-57
2021/10/15 07:57:37;;;;;;;31.07;19.55;;;;;;;10.39;90.39;100235.72;1641874;87;25580;-57
2021/10/15 08:00:07;;;;;;;28.90;18.37;;;;;;;10.40;90.20;100227.30;1641741;87;25646;-56
2021/10/15 08:02:34;;;;;;;29.32;18.67;;;;;;;10.45;90.18;100229.05;1641901;87;25674;-57
2021/10/15 08:05:01;;;;;;;28.80;19.17;;;;;;;10.49;90.10;100223.83;1641873;86;27971;-51
2021/10/15 08:07:28;;;;;;;31.15;18.37;;;;;;;10.54;89.96;100215.58;1641804;87;25768;-50
2021/10/15 08:09:55;;;;;;;27.58;18.55;;;;;;;10.57;89.95;100223.89;1641754;86;26026;-55
2021/10/15 08:12:21;;;;;;;31.23;19.12;;;;;;;10.67;89.92;100226.87;1641813;87;27450;-56
2021/10/15 08:14:48;;;;;;;27.90;19.05;;;;;;;10.73;89.60;100222.93;1641913;87;25719;-57
2021/10/15 08:17:16;;;;;;;26.35;16.75;;;;;;;10.79;89.42;100224.38;1641835;87;27350;-55
2021/10/15 08:19:43;;;;;;;25.52;17.40;;;;;;;10.87;89.05;100219.33;1641818;87;25496;-57
2021/10/15 08:22:10;;;;;;;24.07;17.00;;;;;;;10.93;88.90;100213.47;1641877;87;25731;-56
2021/10/15 08:24:37;;;;;;;27.00;17.25;;;;;;;11.01;88.75;100200.50;1641838;86;25903;-57
2021/10/15 08:27:06;;;;;;;25.02;17.17;;;;;;;11.07;88.23;100203.88;1641900;86;25565;-57
2021/10/15 08:29:38;;;;;;;25.80;17.30;;;;;;;11.14;88.17;100203.42;1642058;87;27999;-55
2021/10/15 08:32:02;;;;;;;21.87;16.25;;;;;;;11.17;87.66;100211.70;1641256;87;25639;-53
2021/10/15 08:34:29;;;;;;;22.37;15.75;;;;;;;11.21;87.38;100210.52;1641837;86;25724;-56
2021/10/15 08:36:56;;;;;;;23.18;15.32;;;;;;;11.26;87.22;100191.98;1641793;86;25701;-51
2021/10/15 08:39:26;;;;;;;22.45;16.07;;;;;;;11.33;87.23;100199.08;1641867;87;25689;-56
2021/10/15 08:41:51;;;;;;;20.52;16.05;;;;;;;11.40;87.20;100196.13;1641630;87;28041;-58
2021/10/15 08:44:19;;;;;;;23.77;14.70;;;;;;;11.50;86.42;100203.16;1641790;86;25575;-58
2021/10/15 08:46:46;;;;;;;20.77;14.83;;;;;;;11.56;86.45;100190.24;1641860;87;25524;-59
2021/10/15 08:49:14;;;;;;;22.35;15.23;;;;;;;11.67;86.34;100192.10;1641791;86;25504;-59
2021/10/15 08:51:40;;;;;;;20.95;14.75;;;;;;;11.76;85.72;100187.47;1641971;87;25712;-59
2021/10/15 08:54:07;;;;;;;23.57;15.63;;;;;;;11.80;85.72;100188.98;1641824;87;27388;-59
2021/10/15 08:56:35;;;;;;;20.88;14.40;;;;;;;11.84;85.22;100194.80;1641729;87;27185;-58
2021/10/15 08:59:07;;;;;;;19.95;14.70;;;;;;;11.89;84.81;100193.85;1641850;86;25670;-60
2021/10/15 09:01:45;;;;;;;17.60;14.23;;;;;;;11.91;84.69;100182.94;1641835;87;25738;-57
2021/10/15 09:04:17;;;;;;;22.87;14.15;;;;;;;11.98;84.72;100185.74;1641900;87;25718;-57
2021/10/15 09:06:43;;;;;;;19.25;13.78;;;;;;;12.04;83.65;100188.53;1641509;87;27327;-58
2021/10/15 09:09:10;;;;;;;20.08;13.80;;;;;;;12.05;83.25;100188.75;1641693;87;25633;-58
2021/10/15 09:11:47;;;;;;;22.20;13.55;;;;;;;12.10;83.61;100180.45;1641772;86;25821;-59
2021/10/15 09:14:25;;;;;;;20.85;14.05;;;;;;;12.20;83.89;100186.89;1641780;87;25600;-58
2021/10/15 09:17:20;;;;;;;19.27;13.62;;;;;;;12.32;83.42;100187.02;1641867;87;25560;-58
2021/10/15 09:19:52;;;;;;;17.42;12.95;;;;;;;12.60;82.94;100188.53;1641769;87;27412;-58
2021/10/15 09:22:31;;;;;;;23.67;13.18;;;;;;;12.78;82.83;100181.12;1641783;87;25657;-59
2021/10/15 09:25:11;;;;;;;17.60;12.97;;;;;;;13.26;81.07;100207.06;1642097;87;25477;-59
2021/10/15 09:27:44;;;;;;;17.75;12.13;;;;;;;13.26;81.07;100207.06;1641818;87;25630;-60
2021/10/15 09:30:21;;;;;;;15.88;12.20;;;;;;;13.17;79.60;100185.39;1641838;87;25537;-58
2021/10/15 09:32:56;;;;;;;18.23;12.68;;;;;;;13.17;79.20;100177.81;1641736;87;27456;-57
2021/10/15 09:35:27;;;;;;;17.37;12.80;;;;;;;13.16;79.41;100176.21;1641739;87;25751;-56
2021/10/15 09:38:02;;;;;;;16.80;12.10;;;;;;;13.18;79.41;100178.05;1641470;87;25596;-58
2021/10/15 09:40:42;;;;;;;17.40;11.57;;;;;;;13.24;79.15;100173.44;1641779;87;26399;-57
2021/10/15 09:43:12;;;;;;;17.25;10.72;;;;;;;13.27;79.05;100171.42;1641841;87;25564;-57
2021/10/15 09:45:52;;;;;;;17.55;12.33;;;;;;;13.31;78.46;100163.41;1641836;87;27961;-54
2021/10/15 09:48:25;;;;;;;15.98;12.03;;;;;;;13.36;78.21;100167.89;1641865;87;25666;-58
2021/10/15 09:51:22;;;;;;;15.08;10.75;;;;;;;13.38;77.92;100167.80;1641794;87;25631;-55
2021/10/15 09:54:14;;;;;;;18.80;12.07;;;;;;;13.50;78.71;100160.83;1641767;87;25869;-56
2021/10/15 09:56:49;;;;;;;15.58;10.75;;;;;;;13.54;75.56;100163.13;1641814;87;25641;-56
2021/10/15 09:59:16;;;;;;;14.20;10.80;;;;;;;13.54;76.94;100159.05;1641775;87;27990;-56
2021/10/15 10:01:43;;;;;;;17.27;12.05;;;;;;;13.63;76.72;100159.77;1641716;87;25785;-56
2021/10/15 10:04:12;;;;;;;13.40;10.70;;;;;;;13.82;75.65;100160.64;1641791;86;25689;-56
2021/10/15 10:06:39;;;;;;;16.50;11.40;;;;;;;14.00;76.63;100149.05;1641986;87;25927;-56
2021/10/15 10:09:07;;;;;;;14.03;10.98;;;;;;;14.26;77.00;100154.78;1641767;87;25661;-55
2021/10/15 10:11:35;;;;;;;18.10;11.30;;;;;;;14.53;75.14;100156.07;1641724;87;27343;-56
2021/10/15 10:14:02;;;;;;;13.55;10.78;;;;;;;14.79;75.08;100143.51;1641713;87;25756;-55
2021/10/15 10:16:31;;;;;;;16.07;11.00;;;;;;;15.07;74.29;100142.83;1641766;87;25603;-55
2021/10/15 10:19:03;;;;;;;13.80;9.83;;;;;;;15.25;72.50;100137.89;1641877;87;25660;-54
2021/10/15 10:21:33;;;;;;;13.32;10.35;;;;;;;15.59;74.46;100134.39;1641806;87;25565;-55
2021/10/15 10:24:14;;;;;;;14.13;10.18;;;;;;;15.93;72.87;100134.38;1641770;87;26885;-55
2021/10/15 10:26:48;;;;;;;13.03;10.58;;;;;;;16.13;71.18;100129.06;1641698;87;25692;-54
2021/10/15 10:29:16;;;;;;;13.68;10.20;;;;;;;16.23;69.17;100133.42;1641788;87;25540;-56
2021/10/15 10:31:43;;;;;;;14.15;9.98;;;;;;;16.14;66.23;100131.99;1641754;86;25693;-57
2021/10/15 10:34:14;;;;;;;12.85;9.35;;;;;;;16.18;68.24;100122.77;1613783;87;25570;-55
2021/10/15 10:36:42;;;;;;;12.75;9.60;;;;;;;16.19;67.60;100122.19;1608071;89;27203;-56
2021/10/15 10:39:28;;;;;;;14.78;9.93;;;;;;;16.30;66.90;100127.35;1582139;89;25530;-57
2021/10/15 10:42:10;;;;;;;15.10;10.70;;;;;;;16.28;65.63;100126.92;1576832;90;25637;-53
2021/10/15 10:44:50;;;;;;;17.62;10.88;;;;;;;16.37;66.18;100119.33;1576784;91;25695;-55
2021/10/15 10:47:27;;;;;;;13.38;10.25;;;;;;;16.28;65.64;100114.63;1576996;91;25577;-55
2021/10/15 10:50:12;;;;;;;16.37;10.90;;;;;;;16.21;65.33;100115.83;1576574;90;27773;-52
2021/10/15 10:52:50;;;;;;;11.70;9.48;;;;;;;16.09;64.98;100109.06;1575059;90;25757;-53
2021/10/15 10:55:42;;;;;;;13.60;10.25;;;;;;;16.04;65.22;100106.83;1575518;91;25715;-50
2021/10/15 10:58:33;;;;;;;15.63;10.48;;;;;;;16.15;64.20;100107.67;1576844;91;25677;-51
2021/10/15 11:01:28;;;;;;;13.13;10.20;;;;;;;16.28;64.98;100102.91;1576858;91;25699;-54
2021/10/15 11:03:56;;;;;;;17.00;10.58;;;;;;;16.46;65.04;100099.27;1576863;91;28096;-56
2021/10/15 11:06:24;;;;;;;12.98;9.30;;;;;;;16.58;63.49;100111.44;1576819;91;25702;-56
2021/10/15 11:08:51;;;;;;;15.35;11.70;;;;;;;16.61;64.57;100101.97;1576783;91;25637;-55
2021/10/15 11:11:28;;;;;;;11.83;9.85;;;;;;;16.65;64.15;100092.48;1576724;88;26332;-55
2021/10/15 11:13:54;;;;;;;14.95;10.82;;;;;;;16.69;64.59;100097.48;1576844;90;25738;-52
2021/10/15 11:16:27;;;;;;;16.75;11.00;;;;;;;16.64;63.60;100095.02;1576870;91;27664;-52
2021/10/15 11:18:57;;;;;;;11.85;10.43;;;;;;;16.47;63.51;100083.11;1586087;89;25745;-55
2021/10/15 11:21:24;;;;;;;;;;;;;;;16.35;63.57;100098.43;1611885;89;25488;-56
2021/10/15 11:23:53;;;;;;;13.25;9.68;;;;;;;16.10;63.67;100088.25;1609488;89;25910;-55
2021/10/15 11:26:34;;;;;;;12.10;9.38;;;;;;;15.86;64.10;100079.66;1609736;89;25689;-58
2021/10/15 11:29:00;;;;;;;12.07;9.63;;;;;;;15.76;64.38;100081.52;1582457;89;27525;-57
2021/10/15 11:31:29;;;;;;;11.63;9.58;;;;;;;15.59;64.68;100077.14;1609419;89;25682;-56
2021/10/15 11:34:08;;;;;;;14.70;10.03;;;;;;;15.60;64.18;100073.29;1609403;89;25496;-55